sensor_id;sensor_type;location;lat;lon;timestamp;P1;durP1;ratioP1;P2;durP2;ratioP2
21095;SDS011;10706;49.036;12.112;2022-07-29T00:02:11;4.70;;;2.30;;
21095;SDS011;10706;49.036;12.112;2022-07-29T00:04:38;6.97;;;2.30;;
21095;SDS011;10706;49.036;12.112;2022-07-29T00:07:04;6.68;;;2.15;;
21095;SDS011;10706;49.036;12.112;2022-07-29T00:09:30;7.05;;;2.20;;
21095;SDS011;10706;49.036;12.112;2022-07-29T00:11:57;5.55;;;2.30;;
21095;SDS011;10706;49.036;12.112;2022-07-29T00:14:25;6.60;;;2.55;;
21095;SDS011;10706;49.036;12.112;2022-07-29T00:16:52;4.78;;;2.20;;
21095;SDS011;10706;49.036;12.112;2022-07-29T00:19:17;6.65;;;2.83;;
21095;SDS011;10706;49.036;12.112;2022-07-29T00:21:43;6.57;;;2.75;;
21095;SDS011;10706;49.036;12.112;2022-07-29T00:24:09;4.70;;;2.10;;
21095;SDS011;10706;49.036;12.112;2022-07-29T00:26:35;7.68;;;2.30;;
21095;SDS011;10706;49.036;12.112;2022-07-29T00:29:01;9.75;;;2.53;;
21095;SDS011;10706;49.036;12.112;2022-07-29T00:31:29;5.05;;;2.22;;
21095;SDS011;10706;49.036;12.112;2022-07-29T00:33:55;5.50;;;2.53;;
21095;SDS011;10706;49.036;12.112;2022-07-29T00:36:21;4.70;;;2.28;;
21095;SDS011;10706;49.036;12.112;2022-07-29T00:38:48;6.80;;;2.55;;
21095;SDS011;10706;49.036;12.112;2022-07-29T00:41:15;6.22;;;2.38;;
21095;SDS011;10706;49.036;12.112;2022-07-29T00:43:42;7.50;;;2.53;;
21095;SDS011;10706;49.036;12.112;2022-07-29T00:46:09;7.63;;;2.33;;
21095;SDS011;10706;49.036;12.112;2022-07-29T00:48:35;8.52;;;2.60;;
21095;SDS011;10706;49.036;12.112;2022-07-29T00:51:02;7.15;;;2.35;;
21095;SDS011;10706;49.036;12.112;2022-07-29T00:53:30;6.63;;;2.58;;
21095;SDS011;10706;49.036;12.112;2022-07-29T00:55:56;6.50;;;2.58;;
21095;SDS011;10706;49.036;12.112;2022-07-29T00:58:23;7.47;;;2.20;;
21095;SDS011;10706;49.036;12.112;2022-07-29T01:00:51;4.40;;;2.25;;
21095;SDS011;10706;49.036;12.112;2022-07-29T01:03:17;6.72;;;2.53;;
21095;SDS011;10706;49.036;12.112;2022-07-29T01:05:44;5.13;;;2.28;;
21095;SDS011;10706;49.036;12.112;2022-07-29T01:08:11;5.88;;;2.22;;
21095;SDS011;10706;49.036;12.112;2022-07-29T01:10:39;5.85;;;2.30;;
21095;SDS011;10706;49.036;12.112;2022-07-29T01:13:06;10.00;;;2.38;;
21095;SDS011;10706;49.036;12.112;2022-07-29T01:15:34;5.97;;;2.60;;
21095;SDS011;10706;49.036;12.112;2022-07-29T01:18:20;10.00;;;2.58;;
21095;SDS011;10706;49.036;12.112;2022-07-29T01:20:58;6.97;;;2.70;;
21095;SDS011;10706;49.036;12.112;2022-07-29T01:26:47;6.55;;;2.47;;
21095;SDS011;10706;49.036;12.112;2022-07-29T01:29:30;8.50;;;2.55;;
21095;SDS011;10706;49.036;12.112;2022-07-29T01:34:40;9.90;;;2.80;;
21095;SDS011;10706;49.036;12.112;2022-07-29T01:39:51;7.45;;;2.65;;
21095;SDS011;10706;49.036;12.112;2022-07-29T01:42:23;6.72;;;2.80;;
21095;SDS011;10706;49.036;12.112;2022-07-29T01:50:49;3.83;;;2.22;;
21095;SDS011;10706;49.036;12.112;2022-07-29T01:53:30;4.97;;;2.53;;
21095;SDS011;10706;49.036;12.112;2022-07-29T01:56:07;7.63;;;2.67;;
21095;SDS011;10706;49.036;12.112;2022-07-29T01:58:35;9.18;;;2.88;;
21095;SDS011;10706;49.036;12.112;2022-07-29T02:01:04;5.93;;;2.65;;
21095;SDS011;10706;49.036;12.112;2022-07-29T02:03:33;8.93;;;2.80;;
21095;SDS011;10706;49.036;12.112;2022-07-29T02:06:03;8.20;;;3.20;;
21095;SDS011;10706;49.036;12.112;2022-07-29T02:08:32;5.45;;;2.53;;
21095;SDS011;10706;49.036;12.112;2022-07-29T02:10:59;6.28;;;2.45;;
21095;SDS011;10706;49.036;12.112;2022-07-29T02:13:28;5.20;;;2.58;;
21095;SDS011;10706;49.036;12.112;2022-07-29T02:15:56;10.10;;;2.67;;
21095;SDS011;10706;49.036;12.112;2022-07-29T02:18:25;9.15;;;2.83;;
21095;SDS011;10706;49.036;12.112;2022-07-29T02:20:53;8.60;;;2.65;;
21095;SDS011;10706;49.036;12.112;2022-07-29T02:23:22;9.80;;;3.00;;
21095;SDS011;10706;49.036;12.112;2022-07-29T02:25:50;9.93;;;2.60;;
21095;SDS011;10706;49.036;12.112;2022-07-29T02:28:24;7.57;;;2.17;;
21095;SDS011;10706;49.036;12.112;2022-07-29T02:30:53;11.95;;;2.92;;
21095;SDS011;10706;49.036;12.112;2022-07-29T02:33:23;8.85;;;2.92;;
21095;SDS011;10706;49.036;12.112;2022-07-29T02:35:50;6.40;;;2.15;;
21095;SDS011;10706;49.036;12.112;2022-07-29T02:38:17;6.95;;;2.63;;
21095;SDS011;10706;49.036;12.112;2022-07-29T02:41:05;8.82;;;2.83;;
21095;SDS011;10706;49.036;12.112;2022-07-29T02:43:37;5.97;;;2.45;;
21095;SDS011;10706;49.036;12.112;2022-07-29T02:46:05;7.95;;;2.60;;
21095;SDS011;10706;49.036;12.112;2022-07-29T02:48:38;6.32;;;2.50;;
21095;SDS011;10706;49.036;12.112;2022-07-29T02:51:18;6.45;;;2.50;;
21095;SDS011;10706;49.036;12.112;2022-07-29T02:53:55;9.57;;;2.75;;
21095;SDS011;10706;49.036;12.112;2022-07-29T02:56:27;6.70;;;2.53;;
21095;SDS011;10706;49.036;12.112;2022-07-29T02:59:01;9.90;;;2.80;;
21095;SDS011;10706;49.036;12.112;2022-07-29T03:01:33;6.20;;;2.65;;
21095;SDS011;10706;49.036;12.112;2022-07-29T03:04:03;4.13;;;2.20;;
21095;SDS011;10706;49.036;12.112;2022-07-29T03:06:30;7.82;;;2.35;;
21095;SDS011;10706;49.036;12.112;2022-07-29T03:08:57;10.35;;;2.78;;
21095;SDS011;10706;49.036;12.112;2022-07-29T03:11:24;6.53;;;2.72;;
21095;SDS011;10706;49.036;12.112;2022-07-29T03:13:51;7.80;;;2.63;;
21095;SDS011;10706;49.036;12.112;2022-07-29T03:16:19;5.93;;;2.55;;
21095;SDS011;10706;49.036;12.112;2022-07-29T03:18:45;5.50;;;2.60;;
21095;SDS011;10706;49.036;12.112;2022-07-29T03:21:12;7.78;;;2.92;;
21095;SDS011;10706;49.036;12.112;2022-07-29T03:23:38;5.68;;;2.50;;
21095;SDS011;10706;49.036;12.112;2022-07-29T03:26:12;9.77;;;2.38;;
21095;SDS011;10706;49.036;12.112;2022-07-29T03:28:38;5.00;;;2.50;;
21095;SDS011;10706;49.036;12.112;2022-07-29T03:31:03;9.30;;;2.85;;
21095;SDS011;10706;49.036;12.112;2022-07-29T03:33:29;5.80;;;2.70;;
21095;SDS011;10706;49.036;12.112;2022-07-29T03:35:56;4.70;;;2.65;;
21095;SDS011;10706;49.036;12.112;2022-07-29T03:38:23;7.20;;;2.85;;
21095;SDS011;10706;49.036;12.112;2022-07-29T03:40:56;12.23;;;2.97;;
21095;SDS011;10706;49.036;12.112;2022-07-29T03:43:29;8.27;;;2.58;;
21095;SDS011;10706;49.036;12.112;2022-07-29T03:45:59;7.88;;;2.47;;
21095;SDS011;10706;49.036;12.112;2022-07-29T03:48:28;10.35;;;2.90;;
21095;SDS011;10706;49.036;12.112;2022-07-29T03:50:57;7.65;;;2.70;;
21095;SDS011;10706;49.036;12.112;2022-07-29T03:53:23;5.72;;;2.53;;
21095;SDS011;10706;49.036;12.112;2022-07-29T03:55:50;7.90;;;2.92;;
21095;SDS011;10706;49.036;12.112;2022-07-29T03:58:21;6.90;;;2.45;;
21095;SDS011;10706;49.036;12.112;2022-07-29T04:00:51;5.68;;;2.40;;
21095;SDS011;10706;49.036;12.112;2022-07-29T04:03:18;14.38;;;2.53;;
21095;SDS011;10706;49.036;12.112;2022-07-29T04:05:45;8.48;;;2.90;;
21095;SDS011;10706;49.036;12.112;2022-07-29T04:08:34;13.10;;;2.58;;
21095;SDS011;10706;49.036;12.112;2022-07-29T04:11:00;9.13;;;2.95;;
21095;SDS011;10706;49.036;12.112;2022-07-29T04:13:27;4.30;;;2.42;;
21095;SDS011;10706;49.036;12.112;2022-07-29T04:15:53;8.45;;;2.72;;
21095;SDS011;10706;49.036;12.112;2022-07-29T04:18:19;9.60;;;2.58;;
21095;SDS011;10706;49.036;12.112;2022-07-29T04:20:45;7.13;;;2.70;;
21095;SDS011;10706;49.036;12.112;2022-07-29T04:23:11;8.50;;;3.40;;
21095;SDS011;10706;49.036;12.112;2022-07-29T04:25:38;7.03;;;2.90;;
21095;SDS011;10706;49.036;12.112;2022-07-29T04:28:05;5.65;;;2.42;;
21095;SDS011;10706;49.036;12.112;2022-07-29T04:30:32;7.75;;;2.60;;
21095;SDS011;10706;49.036;12.112;2022-07-29T04:33:00;9.43;;;2.53;;
21095;SDS011;10706;49.036;12.112;2022-07-29T04:35:29;7.38;;;2.50;;
21095;SDS011;10706;49.036;12.112;2022-07-29T04:37:58;6.20;;;2.60;;
21095;SDS011;10706;49.036;12.112;2022-07-29T04:40:24;3.72;;;2.15;;
21095;SDS011;10706;49.036;12.112;2022-07-29T04:42:50;10.20;;;2.65;;
21095;SDS011;10706;49.036;12.112;2022-07-29T04:45:16;9.00;;;2.65;;
21095;SDS011;10706;49.036;12.112;2022-07-29T04:47:42;7.32;;;2.85;;
21095;SDS011;10706;49.036;12.112;2022-07-29T04:50:09;6.22;;;2.67;;
21095;SDS011;10706;49.036;12.112;2022-07-29T04:52:35;6.15;;;2.55;;
21095;SDS011;10706;49.036;12.112;2022-07-29T04:55:02;5.35;;;2.55;;
21095;SDS011;10706;49.036;12.112;2022-07-29T04:57:29;6.43;;;2.67;;
21095;SDS011;10706;49.036;12.112;2022-07-29T04:59:55;5.28;;;2.35;;
21095;SDS011;10706;49.036;12.112;2022-07-29T05:02:20;5.18;;;2.45;;
21095;SDS011;10706;49.036;12.112;2022-07-29T05:04:46;9.10;;;3.55;;
21095;SDS011;10706;49.036;12.112;2022-07-29T05:07:13;7.00;;;2.60;;
21095;SDS011;10706;49.036;12.112;2022-07-29T05:09:39;5.53;;;2.35;;
21095;SDS011;10706;49.036;12.112;2022-07-29T05:12:05;9.32;;;2.95;;
21095;SDS011;10706;49.036;12.112;2022-07-29T05:14:31;8.27;;;2.90;;
21095;SDS011;10706;49.036;12.112;2022-07-29T05:16:57;8.90;;;2.90;;
21095;SDS011;10706;49.036;12.112;2022-07-29T05:19:23;6.85;;;2.50;;
21095;SDS011;10706;49.036;12.112;2022-07-29T05:21:49;6.25;;;2.50;;
21095;SDS011;10706;49.036;12.112;2022-07-29T05:24:15;12.38;;;3.15;;
21095;SDS011;10706;49.036;12.112;2022-07-29T05:26:41;11.18;;;2.90;;
21095;SDS011;10706;49.036;12.112;2022-07-29T05:29:07;13.55;;;2.75;;
21095;SDS011;10706;49.036;12.112;2022-07-29T05:31:33;11.27;;;2.80;;
21095;SDS011;10706;49.036;12.112;2022-07-29T05:33:58;9.45;;;2.80;;
21095;SDS011;10706;49.036;12.112;2022-07-29T05:36:25;9.07;;;2.70;;
21095;SDS011;10706;49.036;12.112;2022-07-29T05:38:51;8.18;;;2.33;;
21095;SDS011;10706;49.036;12.112;2022-07-29T05:41:17;27.63;;;2.90;;
21095;SDS011;10706;49.036;12.112;2022-07-29T05:43:44;9.60;;;2.30;;
21095;SDS011;10706;49.036;12.112;2022-07-29T05:46:11;17.80;;;2.90;;
21095;SDS011;10706;49.036;12.112;2022-07-29T05:48:37;11.52;;;2.40;;
21095;SDS011;10706;49.036;12.112;2022-07-29T05:51:03;8.43;;;2.47;;
21095;SDS011;10706;49.036;12.112;2022-07-29T05:53:29;9.65;;;2.58;;
21095;SDS011;10706;49.036;12.112;2022-07-29T05:55:55;12.77;;;2.80;;
21095;SDS011;10706;49.036;12.112;2022-07-29T05:58:21;12.27;;;2.47;;
21095;SDS011;10706;49.036;12.112;2022-07-29T06:00:47;8.43;;;2.40;;
21095;SDS011;10706;49.036;12.112;2022-07-29T06:03:13;8.77;;;2.47;;
21095;SDS011;10706;49.036;12.112;2022-07-29T06:05:38;7.65;;;2.38;;
21095;SDS011;10706;49.036;12.112;2022-07-29T06:08:05;9.55;;;2.47;;
21095;SDS011;10706;49.036;12.112;2022-07-29T06:10:32;9.32;;;2.85;;
21095;SDS011;10706;49.036;12.112;2022-07-29T06:12:59;10.95;;;2.80;;
21095;SDS011;10706;49.036;12.112;2022-07-29T06:15:25;9.88;;;2.53;;
21095;SDS011;10706;49.036;12.112;2022-07-29T06:17:51;6.75;;;2.40;;
21095;SDS011;10706;49.036;12.112;2022-07-29T06:20:18;6.75;;;2.53;;
21095;SDS011;10706;49.036;12.112;2022-07-29T06:22:44;10.52;;;2.40;;
21095;SDS011;10706;49.036;12.112;2022-07-29T06:25:10;7.63;;;2.67;;
21095;SDS011;10706;49.036;12.112;2022-07-29T06:27:36;11.20;;;2.58;;
21095;SDS011;10706;49.036;12.112;2022-07-29T06:30:02;6.05;;;2.88;;
21095;SDS011;10706;49.036;12.112;2022-07-29T06:32:31;7.32;;;2.75;;
21095;SDS011;10706;49.036;12.112;2022-07-29T06:34:58;8.18;;;3.03;;
21095;SDS011;10706;49.036;12.112;2022-07-29T06:37:24;7.80;;;2.67;;
21095;SDS011;10706;49.036;12.112;2022-07-29T06:39:49;7.75;;;2.70;;
21095;SDS011;10706;49.036;12.112;2022-07-29T06:42:35;10.45;;;3.03;;
21095;SDS011;10706;49.036;12.112;2022-07-29T06:45:01;5.82;;;2.70;;
21095;SDS011;10706;49.036;12.112;2022-07-29T06:47:27;6.07;;;2.90;;
21095;SDS011;10706;49.036;12.112;2022-07-29T06:49:53;9.82;;;3.00;;
21095;SDS011;10706;49.036;12.112;2022-07-29T06:52:19;8.63;;;3.35;;
21095;SDS011;10706;49.036;12.112;2022-07-29T06:54:45;8.77;;;3.28;;
21095;SDS011;10706;49.036;12.112;2022-07-29T06:57:13;9.40;;;3.40;;
21095;SDS011;10706;49.036;12.112;2022-07-29T06:59:39;11.80;;;3.03;;
21095;SDS011;10706;49.036;12.112;2022-07-29T07:02:05;11.00;;;3.55;;
21095;SDS011;10706;49.036;12.112;2022-07-29T07:04:31;11.40;;;3.20;;
21095;SDS011;10706;49.036;12.112;2022-07-29T07:06:56;13.80;;;3.08;;
21095;SDS011;10706;49.036;12.112;2022-07-29T07:09:24;10.07;;;2.83;;
21095;SDS011;10706;49.036;12.112;2022-07-29T07:11:49;8.40;;;2.97;;
21095;SDS011;10706;49.036;12.112;2022-07-29T07:14:15;8.18;;;2.95;;
21095;SDS011;10706;49.036;12.112;2022-07-29T07:16:41;10.75;;;2.58;;
21095;SDS011;10706;49.036;12.112;2022-07-29T07:19:07;8.38;;;3.30;;
21095;SDS011;10706;49.036;12.112;2022-07-29T07:21:32;10.65;;;2.47;;
21095;SDS011;10706;49.036;12.112;2022-07-29T07:23:59;10.75;;;3.30;;
21095;SDS011;10706;49.036;12.112;2022-07-29T07:26:25;11.85;;;2.92;;
21095;SDS011;10706;49.036;12.112;2022-07-29T07:28:51;7.78;;;2.60;;
21095;SDS011;10706;49.036;12.112;2022-07-29T07:31:17;7.60;;;2.92;;
21095;SDS011;10706;49.036;12.112;2022-07-29T07:33:43;11.93;;;3.20;;
21095;SDS011;10706;49.036;12.112;2022-07-29T07:36:09;9.23;;;3.53;;
21095;SDS011;10706;49.036;12.112;2022-07-29T07:38:35;7.32;;;3.25;;
21095;SDS011;10706;49.036;12.112;2022-07-29T07:41:01;11.68;;;4.13;;
21095;SDS011;10706;49.036;12.112;2022-07-29T07:43:27;9.27;;;3.55;;
21095;SDS011;10706;49.036;12.112;2022-07-29T07:45:53;10.55;;;3.55;;
21095;SDS011;10706;49.036;12.112;2022-07-29T07:48:19;12.27;;;3.53;;
21095;SDS011;10706;49.036;12.112;2022-07-29T07:50:45;8.68;;;3.40;;
21095;SDS011;10706;49.036;12.112;2022-07-29T07:53:11;8.68;;;3.53;;
21095;SDS011;10706;49.036;12.112;2022-07-29T07:55:41;8.55;;;3.58;;
21095;SDS011;10706;49.036;12.112;2022-07-29T07:58:08;19.20;;;4.07;;
21095;SDS011;10706;49.036;12.112;2022-07-29T08:00:34;9.95;;;3.90;;
21095;SDS011;10706;49.036;12.112;2022-07-29T08:03:00;12.30;;;3.92;;
21095;SDS011;10706;49.036;12.112;2022-07-29T08:05:26;13.38;;;4.13;;
21095;SDS011;10706;49.036;12.112;2022-07-29T08:07:52;10.20;;;4.15;;
21095;SDS011;10706;49.036;12.112;2022-07-29T08:10:18;9.02;;;3.90;;
21095;SDS011;10706;49.036;12.112;2022-07-29T08:13:03;9.43;;;4.05;;
21095;SDS011;10706;49.036;12.112;2022-07-29T08:15:33;13.60;;;4.22;;
21095;SDS011;10706;49.036;12.112;2022-07-29T08:18:00;14.70;;;4.18;;
21095;SDS011;10706;49.036;12.112;2022-07-29T08:20:26;15.70;;;4.40;;
21095;SDS011;10706;49.036;12.112;2022-07-29T08:22:52;14.50;;;4.28;;
21095;SDS011;10706;49.036;12.112;2022-07-29T08:25:18;10.85;;;4.50;;
21095;SDS011;10706;49.036;12.112;2022-07-29T08:27:46;11.30;;;4.40;;
21095;SDS011;10706;49.036;12.112;2022-07-29T08:30:12;9.38;;;4.20;;
21095;SDS011;10706;49.036;12.112;2022-07-29T08:32:38;12.80;;;4.15;;
21095;SDS011;10706;49.036;12.112;2022-07-29T08:35:04;13.50;;;4.03;;
21095;SDS011;10706;49.036;12.112;2022-07-29T08:37:30;8.75;;;3.75;;
21095;SDS011;10706;49.036;12.112;2022-07-29T08:39:56;11.50;;;4.07;;
21095;SDS011;10706;49.036;12.112;2022-07-29T08:42:22;16.27;;;4.38;;
21095;SDS011;10706;49.036;12.112;2022-07-29T08:44:48;11.38;;;4.07;;
21095;SDS011;10706;49.036;12.112;2022-07-29T08:47:19;12.98;;;3.67;;
21095;SDS011;10706;49.036;12.112;2022-07-29T08:49:45;8.80;;;4.00;;
21095;SDS011;10706;49.036;12.112;2022-07-29T08:52:15;10.85;;;4.40;;
21095;SDS011;10706;49.036;12.112;2022-07-29T08:54:43;8.63;;;3.70;;
21095;SDS011;10706;49.036;12.112;2022-07-29T08:57:10;8.93;;;3.50;;
21095;SDS011;10706;49.036;12.112;2022-07-29T08:59:44;9.50;;;4.40;;
21095;SDS011;10706;49.036;12.112;2022-07-29T09:06:07;9.95;;;3.60;;
21095;SDS011;10706;49.036;12.112;2022-07-29T09:08:46;9.85;;;4.07;;
21095;SDS011;10706;49.036;12.112;2022-07-29T09:11:19;14.55;;;3.80;;
21095;SDS011;10706;49.036;12.112;2022-07-29T09:13:56;10.63;;;3.70;;
21095;SDS011;10706;49.036;12.112;2022-07-29T09:16:23;10.75;;;3.50;;
21095;SDS011;10706;49.036;12.112;2022-07-29T09:19:01;10.88;;;3.28;;
21095;SDS011;10706;49.036;12.112;2022-07-29T09:44:03;6.75;;;2.60;;
21095;SDS011;10706;49.036;12.112;2022-07-29T10:00:48;9.32;;;3.17;;
21095;SDS011;10706;49.036;12.112;2022-07-29T10:07:26;10.10;;;3.40;;
21095;SDS011;10706;49.036;12.112;2022-07-29T10:10:24;20.45;;;5.57;;
21095;SDS011;10706;49.036;12.112;2022-07-29T10:16:55;24.20;;;6.10;;
21095;SDS011;10706;49.036;12.112;2022-07-29T10:19:59;8.15;;;3.47;;
21095;SDS011;10706;49.036;12.112;2022-07-29T10:22:41;9.02;;;3.20;;
21095;SDS011;10706;49.036;12.112;2022-07-29T10:26:13;6.90;;;2.80;;
21095;SDS011;10706;49.036;12.112;2022-07-29T10:36:20;7.32;;;3.47;;
21095;SDS011;10706;49.036;12.112;2022-07-29T10:39:33;8.68;;;3.08;;
21095;SDS011;10706;49.036;12.112;2022-07-29T10:42:30;8.57;;;3.22;;
21095;SDS011;10706;49.036;12.112;2022-07-29T10:45:10;26.83;;;5.75;;
21095;SDS011;10706;49.036;12.112;2022-07-29T10:48:20;5.78;;;2.80;;
21095;SDS011;10706;49.036;12.112;2022-07-29T10:51:03;6.60;;;2.95;;
21095;SDS011;10706;49.036;12.112;2022-07-29T10:53:53;8.68;;;3.05;;
21095;SDS011;10706;49.036;12.112;2022-07-29T11:03:49;7.60;;;2.47;;
21095;SDS011;10706;49.036;12.112;2022-07-29T11:09:33;4.60;;;2.42;;
21095;SDS011;10706;49.036;12.112;2022-07-29T11:21:57;5.78;;;2.40;;
21095;SDS011;10706;49.036;12.112;2022-07-29T11:27:46;3.78;;;2.17;;
21095;SDS011;10706;49.036;12.112;2022-07-29T11:30:47;5.10;;;2.15;;
21095;SDS011;10706;49.036;12.112;2022-07-29T11:33:38;5.68;;;2.35;;
21095;SDS011;10706;49.036;12.112;2022-07-29T11:36:24;5.95;;;2.33;;
21095;SDS011;10706;49.036;12.112;2022-07-29T11:39:27;3.85;;;1.90;;
21095;SDS011;10706;49.036;12.112;2022-07-29T11:51:36;15.95;;;4.05;;
21095;SDS011;10706;49.036;12.112;2022-07-29T11:54:43;4.60;;;1.92;;
21095;SDS011;10706;49.036;12.112;2022-07-29T11:58:15;5.05;;;2.22;;
21095;SDS011;10706;49.036;12.112;2022-07-29T12:00:48;3.60;;;1.85;;
21095;SDS011;10706;49.036;12.112;2022-07-29T12:03:34;6.68;;;2.20;;
21095;SDS011;10706;49.036;12.112;2022-07-29T12:06:23;4.35;;;2.10;;
21095;SDS011;10706;49.036;12.112;2022-07-29T12:12:01;2.47;;;1.60;;
21095;SDS011;10706;49.036;12.112;2022-07-29T12:14:54;3.03;;;1.70;;
21095;SDS011;10706;49.036;12.112;2022-07-29T12:19:59;6.25;;;2.70;;
21095;SDS011;10706;49.036;12.112;2022-07-29T12:22:37;4.75;;;2.30;;
21095;SDS011;10706;49.036;12.112;2022-07-29T12:25:12;5.90;;;2.30;;
21095;SDS011;10706;49.036;12.112;2022-07-29T12:27:41;3.90;;;1.90;;
21095;SDS011;10706;49.036;12.112;2022-07-29T12:30:09;4.32;;;1.48;;
21095;SDS011;10706;49.036;12.112;2022-07-29T12:32:39;4.22;;;1.55;;
21095;SDS011;10706;49.036;12.112;2022-07-29T12:35:11;4.75;;;1.90;;
21095;SDS011;10706;49.036;12.112;2022-07-29T12:37:42;4.10;;;1.80;;
21095;SDS011;10706;49.036;12.112;2022-07-29T12:40:10;5.82;;;1.98;;
21095;SDS011;10706;49.036;12.112;2022-07-29T12:42:39;2.67;;;1.80;;
21095;SDS011;10706;49.036;12.112;2022-07-29T12:45:05;3.13;;;1.77;;
21095;SDS011;10706;49.036;12.112;2022-07-29T12:47:32;9.63;;;2.17;;
21095;SDS011;10706;49.036;12.112;2022-07-29T12:52:53;8.45;;;2.15;;
21095;SDS011;10706;49.036;12.112;2022-07-29T12:55:40;3.80;;;1.70;;
21095;SDS011;10706;49.036;12.112;2022-07-29T12:58:09;4.75;;;1.65;;
21095;SDS011;10706;49.036;12.112;2022-07-29T13:00:34;4.68;;;1.80;;
21095;SDS011;10706;49.036;12.112;2022-07-29T13:03:00;3.70;;;1.55;;
21095;SDS011;10706;49.036;12.112;2022-07-29T13:05:42;4.13;;;1.63;;
21095;SDS011;10706;49.036;12.112;2022-07-29T13:08:13;6.25;;;1.83;;
21095;SDS011;10706;49.036;12.112;2022-07-29T13:10:41;3.33;;;1.80;;
21095;SDS011;10706;49.036;12.112;2022-07-29T13:13:08;3.72;;;1.83;;
21095;SDS011;10706;49.036;12.112;2022-07-29T13:15:36;4.50;;;1.60;;
21095;SDS011;10706;49.036;12.112;2022-07-29T13:18:30;3.13;;;1.65;;
21095;SDS011;10706;49.036;12.112;2022-07-29T13:21:10;2.72;;;1.63;;
21095;SDS011;10706;49.036;12.112;2022-07-29T13:23:38;3.80;;;1.67;;
21095;SDS011;10706;49.036;12.112;2022-07-29T13:26:05;4.50;;;1.73;;
21095;SDS011;10706;49.036;12.112;2022-07-29T13:28:33;5.43;;;1.67;;
21095;SDS011;10706;49.036;12.112;2022-07-29T13:30:59;5.93;;;1.65;;
21095;SDS011;10706;49.036;12.112;2022-07-29T13:33:26;4.25;;;1.67;;
21095;SDS011;10706;49.036;12.112;2022-07-29T13:35:51;4.60;;;1.55;;
21095;SDS011;10706;49.036;12.112;2022-07-29T13:38:17;4.95;;;2.00;;
21095;SDS011;10706;49.036;12.112;2022-07-29T13:40:43;5.28;;;1.63;;
21095;SDS011;10706;49.036;12.112;2022-07-29T13:45:50;32.83;;;7.13;;
21095;SDS011;10706;49.036;12.112;2022-07-29T13:53:28;3.85;;;1.73;;
21095;SDS011;10706;49.036;12.112;2022-07-29T13:56:00;3.58;;;1.48;;
21095;SDS011;10706;49.036;12.112;2022-07-29T13:58:26;6.00;;;1.88;;
21095;SDS011;10706;49.036;12.112;2022-07-29T14:00:53;2.70;;;1.45;;
21095;SDS011;10706;49.036;12.112;2022-07-29T14:03:23;6.97;;;2.13;;
21095;SDS011;10706;49.036;12.112;2022-07-29T14:06:08;5.13;;;1.80;;
21095;SDS011;10706;49.036;12.112;2022-07-29T14:08:34;6.82;;;1.95;;
21095;SDS011;10706;49.036;12.112;2022-07-29T14:11:00;4.53;;;1.70;;
21095;SDS011;10706;49.036;12.112;2022-07-29T14:13:26;3.95;;;2.10;;
21095;SDS011;10706;49.036;12.112;2022-07-29T14:15:54;3.15;;;1.63;;
21095;SDS011;10706;49.036;12.112;2022-07-29T14:18:20;3.60;;;1.77;;
21095;SDS011;10706;49.036;12.112;2022-07-29T14:20:46;4.80;;;1.77;;
21095;SDS011;10706;49.036;12.112;2022-07-29T14:23:12;3.67;;;1.90;;
21095;SDS011;10706;49.036;12.112;2022-07-29T14:25:37;4.05;;;1.52;;
21095;SDS011;10706;49.036;12.112;2022-07-29T14:28:03;3.15;;;1.85;;
21095;SDS011;10706;49.036;12.112;2022-07-29T14:30:29;6.10;;;1.90;;
21095;SDS011;10706;49.036;12.112;2022-07-29T14:32:55;5.55;;;1.92;;
21095;SDS011;10706;49.036;12.112;2022-07-29T14:35:21;6.03;;;1.70;;
21095;SDS011;10706;49.036;12.112;2022-07-29T14:37:49;3.35;;;1.63;;
21095;SDS011;10706;49.036;12.112;2022-07-29T14:40:15;5.35;;;1.70;;
21095;SDS011;10706;49.036;12.112;2022-07-29T14:42:41;3.22;;;1.45;;
21095;SDS011;10706;49.036;12.112;2022-07-29T14:45:07;3.00;;;1.58;;
21095;SDS011;10706;49.036;12.112;2022-07-29T14:47:34;3.17;;;1.58;;
21095;SDS011;10706;49.036;12.112;2022-07-29T14:50:01;4.32;;;1.50;;
21095;SDS011;10706;49.036;12.112;2022-07-29T14:52:31;3.05;;;1.60;;
21095;SDS011;10706;49.036;12.112;2022-07-29T14:54:57;3.50;;;1.52;;
21095;SDS011;10706;49.036;12.112;2022-07-29T14:57:23;2.67;;;1.50;;
21095;SDS011;10706;49.036;12.112;2022-07-29T14:59:49;3.72;;;1.40;;
21095;SDS011;10706;49.036;12.112;2022-07-29T15:02:15;2.42;;;1.55;;
21095;SDS011;10706;49.036;12.112;2022-07-29T15:04:41;7.47;;;1.77;;
21095;SDS011;10706;49.036;12.112;2022-07-29T15:07:07;5.50;;;1.83;;
21095;SDS011;10706;49.036;12.112;2022-07-29T15:09:33;7.60;;;1.35;;
21095;SDS011;10706;49.036;12.112;2022-07-29T15:11:59;4.93;;;1.90;;
21095;SDS011;10706;49.036;12.112;2022-07-29T15:14:24;3.35;;;1.80;;
21095;SDS011;10706;49.036;12.112;2022-07-29T15:16:50;5.53;;;1.70;;
21095;SDS011;10706;49.036;12.112;2022-07-29T15:19:16;3.10;;;1.90;;
21095;SDS011;10706;49.036;12.112;2022-07-29T15:21:42;3.50;;;1.98;;
21095;SDS011;10706;49.036;12.112;2022-07-29T15:24:07;5.13;;;1.70;;
21095;SDS011;10706;49.036;12.112;2022-07-29T15:26:33;5.82;;;1.90;;
21095;SDS011;10706;49.036;12.112;2022-07-29T15:28:59;6.47;;;1.98;;
21095;SDS011;10706;49.036;12.112;2022-07-29T15:31:25;2.95;;;1.45;;
21095;SDS011;10706;49.036;12.112;2022-07-29T15:33:50;6.30;;;1.60;;
21095;SDS011;10706;49.036;12.112;2022-07-29T15:36:16;5.97;;;2.35;;
21095;SDS011;10706;49.036;12.112;2022-07-29T15:38:42;3.20;;;1.90;;
21095;SDS011;10706;49.036;12.112;2022-07-29T15:41:12;6.38;;;1.63;;
21095;SDS011;10706;49.036;12.112;2022-07-29T15:43:42;5.35;;;1.90;;
21095;SDS011;10706;49.036;12.112;2022-07-29T15:46:12;3.35;;;1.60;;
21095;SDS011;10706;49.036;12.112;2022-07-29T15:48:57;3.63;;;1.73;;
21095;SDS011;10706;49.036;12.112;2022-07-29T15:51:23;11.38;;;3.10;;
21095;SDS011;10706;49.036;12.112;2022-07-29T15:53:49;2.92;;;1.92;;
21095;SDS011;10706;49.036;12.112;2022-07-29T15:56:15;3.85;;;1.88;;
21095;SDS011;10706;49.036;12.112;2022-07-29T15:58:41;2.88;;;1.80;;
21095;SDS011;10706;49.036;12.112;2022-07-29T16:01:07;2.50;;;1.63;;
21095;SDS011;10706;49.036;12.112;2022-07-29T16:06:09;3.70;;;1.60;;
21095;SDS011;10706;49.036;12.112;2022-07-29T16:08:35;2.72;;;1.50;;
21095;SDS011;10706;49.036;12.112;2022-07-29T16:11:01;6.82;;;1.80;;
21095;SDS011;10706;49.036;12.112;2022-07-29T16:13:27;4.05;;;1.50;;
21095;SDS011;10706;49.036;12.112;2022-07-29T16:15:53;3.90;;;1.55;;
21095;SDS011;10706;49.036;12.112;2022-07-29T16:18:18;3.75;;;1.60;;
21095;SDS011;10706;49.036;12.112;2022-07-29T16:20:45;4.53;;;1.65;;
21095;SDS011;10706;49.036;12.112;2022-07-29T16:23:10;3.60;;;1.60;;
21095;SDS011;10706;49.036;12.112;2022-07-29T16:25:40;2.42;;;1.33;;
21095;SDS011;10706;49.036;12.112;2022-07-29T16:28:07;2.30;;;1.48;;
21095;SDS011;10706;49.036;12.112;2022-07-29T16:30:34;5.80;;;1.70;;
21095;SDS011;10706;49.036;12.112;2022-07-29T16:33:00;4.45;;;1.60;;
21095;SDS011;10706;49.036;12.112;2022-07-29T16:35:26;6.82;;;1.63;;
21095;SDS011;10706;49.036;12.112;2022-07-29T16:37:54;5.88;;;1.95;;
21095;SDS011;10706;49.036;12.112;2022-07-29T16:40:21;2.78;;;1.40;;
21095;SDS011;10706;49.036;12.112;2022-07-29T16:42:47;2.60;;;1.40;;
21095;SDS011;10706;49.036;12.112;2022-07-29T16:45:13;2.47;;;1.30;;
21095;SDS011;10706;49.036;12.112;2022-07-29T16:47:40;3.90;;;1.58;;
21095;SDS011;10706;49.036;12.112;2022-07-29T16:50:06;4.03;;;1.50;;
21095;SDS011;10706;49.036;12.112;2022-07-29T16:52:32;4.00;;;1.50;;